sensor_id;sensor_type;location;lat;lon;timestamp;pressure;altitude;pressure_sealevel;temperature
68510;BMP180;55512;50.102;19.958;2023-03-02T00:02:15;99445.00;;;-1.40
68510;BMP180;55512;50.102;19.958;2023-03-02T00:04:48;99451.40;;;-1.40
68510;BMP180;55512;50.102;19.958;2023-03-02T00:07:20;99450.40;;;-1.42
68510;BMP180;55512;50.102;19.958;2023-03-02T00:09:47;99449.60;;;-1.46
68510;BMP180;55512;50.102;19.958;2023-03-02T00:12:13;99452.80;;;-1.50
68510;BMP180;55512;50.102;19.958;2023-03-02T00:14:40;99449.00;;;-1.50
68510;BMP180;55512;50.102;19.958;2023-03-02T00:17:06;99450.20;;;-1.50
68510;BMP180;55512;50.102;19.958;2023-03-02T00:19:33;99447.00;;;-1.60
68510;BMP180;55512;50.102;19.958;2023-03-02T00:21:58;99438.60;;;-1.60
68510;BMP180;55512;50.102;19.958;2023-03-02T00:24:23;99440.60;;;-1.60
68510;BMP180;55512;50.102;19.958;2023-03-02T00:26:49;99442.00;;;-1.60
68510;BMP180;55512;50.102;19.958;2023-03-02T00:29:15;99440.60;;;-1.60
68510;BMP180;55512;50.102;19.958;2023-03-02T00:31:40;99441.20;;;-1.60
68510;BMP180;55512;50.102;19.958;2023-03-02T00:34:06;99437.00;;;-1.60
68510;BMP180;55512;50.102;19.958;2023-03-02T00:36:31;99430.60;;;-1.56
68510;BMP180;55512;50.102;19.958;2023-03-02T00:38:57;99431.20;;;-1.50
68510;BMP180;55512;50.102;19.958;2023-03-02T00:41:22;99429.60;;;-1.50
68510;BMP180;55512;50.102;19.958;2023-03-02T00:43:49;99424.80;;;-1.50
68510;BMP180;55512;50.102;19.958;2023-03-02T00:46:24;99427.00;;;-1.40
68510;BMP180;55512;50.102;19.958;2023-03-02T00:48:51;99427.60;;;-1.40
68510;BMP180;55512;50.102;19.958;2023-03-02T00:51:17;99423.20;;;-1.40
68510;BMP180;55512;50.102;19.958;2023-03-02T00:53:43;99426.40;;;-1.48
68510;BMP180;55512;50.102;19.958;2023-03-02T00:56:09;99425.60;;;-1.50
68510;BMP180;55512;50.102;19.958;2023-03-02T00:58:36;99423.00;;;-1.50
68510;BMP180;55512;50.102;19.958;2023-03-02T01:01:11;99414.40;;;-1.46
68510;BMP180;55512;50.102;19.958;2023-03-02T01:03:37;99419.00;;;-1.50
68510;BMP180;55512;50.102;19.958;2023-03-02T01:06:04;99418.00;;;-1.46
68510;BMP180;55512;50.102;19.958;2023-03-02T01:08:30;99417.60;;;-1.50
68510;BMP180;55512;50.102;19.958;2023-03-02T01:10:55;99416.00;;;-1.50
68510;BMP180;55512;50.102;19.958;2023-03-02T01:13:21;99412.00;;;-1.50
68510;BMP180;55512;50.102;19.958;2023-03-02T01:15:47;99413.40;;;-1.50
68510;BMP180;55512;50.102;19.958;2023-03-02T01:18:12;99416.00;;;-1.48
68510;BMP180;55512;50.102;19.958;2023-03-02T01:20:38;99420.20;;;-1.48
68510;BMP180;55512;50.102;19.958;2023-03-02T01:23:04;99417.00;;;-1.50
68510;BMP180;55512;50.102;19.958;2023-03-02T01:25:29;99410.80;;;-1.50
68510;BMP180;55512;50.102;19.958;2023-03-02T01:27:55;99407.80;;;-1.50
68510;BMP180;55512;50.102;19.958;2023-03-02T01:30:20;99407.40;;;-1.60
68510;BMP180;55512;50.102;19.958;2023-03-02T01:32:46;99404.60;;;-1.60
68510;BMP180;55512;50.102;19.958;2023-03-02T01:35:12;99410.60;;;-1.60
68510;BMP180;55512;50.102;19.958;2023-03-02T01:37:37;99406.20;;;-1.60
68510;BMP180;55512;50.102;19.958;2023-03-02T01:40:03;99406.00;;;-1.60
68510;BMP180;55512;50.102;19.958;2023-03-02T01:42:39;99404.20;;;-1.60
68510;BMP180;55512;50.102;19.958;2023-03-02T01:51:05;99392.60;;;-1.70
68510;BMP180;55512;50.102;19.958;2023-03-02T01:53:34;99385.80;;;-1.70
68510;BMP180;55512;50.102;19.958;2023-03-02T01:56:02;99385.20;;;-1.70
68510;BMP180;55512;50.102;19.958;2023-03-02T01:58:33;99380.40;;;-1.70
68510;BMP180;55512;50.102;19.958;2023-03-02T02:01:00;99383.60;;;-1.60
68510;BMP180;55512;50.102;19.958;2023-03-02T02:03:29;99377.80;;;-1.60
68510;BMP180;55512;50.102;19.958;2023-03-02T02:06:08;99379.20;;;-1.60
68510;BMP180;55512;50.102;19.958;2023-03-02T02:08:37;99375.00;;;-1.62
68510;BMP180;55512;50.102;19.958;2023-03-02T02:11:03;99367.60;;;-1.68
68510;BMP180;55512;50.102;19.958;2023-03-02T02:13:29;99366.00;;;-1.70
68510;BMP180;55512;50.102;19.958;2023-03-02T02:15:55;99368.20;;;-1.60
68510;BMP180;55512;50.102;19.958;2023-03-02T02:18:21;99364.60;;;-1.60
68510;BMP180;55512;50.102;19.958;2023-03-02T02:20:47;99362.60;;;-1.66
68510;BMP180;55512;50.102;19.958;2023-03-02T02:26:49;99361.00;;;-1.70
68510;BMP180;55512;50.102;19.958;2023-03-02T02:29:39;99356.60;;;-1.70
68510;BMP180;55512;50.102;19.958;2023-03-02T02:32:25;99356.40;;;-1.70
68510;BMP180;55512;50.102;19.958;2023-03-02T02:35:00;99355.80;;;-1.74
68510;BMP180;55512;50.102;19.958;2023-03-02T02:37:32;99353.80;;;-1.80
68510;BMP180;55512;50.102;19.958;2023-03-02T02:40:02;99352.80;;;-1.80
68510;BMP180;55512;50.102;19.958;2023-03-02T02:42:37;99350.80;;;-1.80
68510;BMP180;55512;50.102;19.958;2023-03-02T02:45:19;99351.00;;;-1.80
68510;BMP180;55512;50.102;19.958;2023-03-02T02:47:45;99349.00;;;-1.80
68510;BMP180;55512;50.102;19.958;2023-03-02T02:50:23;99344.20;;;-1.80
68510;BMP180;55512;50.102;19.958;2023-03-02T02:52:57;99349.40;;;-1.82
68510;BMP180;55512;50.102;19.958;2023-03-02T02:55:25;99345.40;;;-1.90
68510;BMP180;55512;50.102;19.958;2023-03-02T02:57:55;99347.00;;;-1.94
68510;BMP180;55512;50.102;19.958;2023-03-02T03:00:23;99343.80;;;-2.00
68510;BMP180;55512;50.102;19.958;2023-03-02T03:03:04;99341.00;;;-2.00
68510;BMP180;55512;50.102;19.958;2023-03-02T03:05:32;99338.80;;;-2.00
68510;BMP180;55512;50.102;19.958;2023-03-02T03:08:37;99330.60;;;-2.10
68510;BMP180;55512;50.102;19.958;2023-03-02T03:10:55;99329.20;;;-2.10
68510;BMP180;55512;50.102;19.958;2023-03-02T03:13:21;99326.80;;;-2.10
68510;BMP180;55512;50.102;19.958;2023-03-02T03:15:47;99326.60;;;-2.10
68510;BMP180;55512;50.102;19.958;2023-03-02T03:18:12;99321.80;;;-2.10
68510;BMP180;55512;50.102;19.958;2023-03-02T03:20:38;99318.00;;;-2.10
68510;BMP180;55512;50.102;19.958;2023-03-02T03:23:05;99320.40;;;-2.10
68510;BMP180;55512;50.102;19.958;2023-03-02T03:25:30;99312.40;;;-2.00
68510;BMP180;55512;50.102;19.958;2023-03-02T03:27:59;99314.40;;;-2.00
68510;BMP180;55512;50.102;19.958;2023-03-02T03:30:24;99316.00;;;-2.00
68510;BMP180;55512;50.102;19.958;2023-03-02T03:32:50;99310.80;;;-2.00
68510;BMP180;55512;50.102;19.958;2023-03-02T03:35:15;99313.40;;;-2.00
68510;BMP180;55512;50.102;19.958;2023-03-02T03:37:41;99308.20;;;-2.00
68510;BMP180;55512;50.102;19.958;2023-03-02T03:40:09;99305.40;;;-2.00
68510;BMP180;55512;50.102;19.958;2023-03-02T03:42:36;99302.60;;;-2.00
68510;BMP180;55512;50.102;19.958;2023-03-02T03:45:04;99307.60;;;-1.90
68510;BMP180;55512;50.102;19.958;2023-03-02T03:47:29;99308.40;;;-1.90
68510;BMP180;55512;50.102;19.958;2023-03-02T03:49:55;99297.60;;;-2.00
68510;BMP180;55512;50.102;19.958;2023-03-02T03:52:21;99302.40;;;-2.00
68510;BMP180;55512;50.102;19.958;2023-03-02T03:54:59;99296.20;;;-2.00
68510;BMP180;55512;50.102;19.958;2023-03-02T03:57:26;99295.80;;;-2.00
68510;BMP180;55512;50.102;19.958;2023-03-02T03:59:53;99299.00;;;-2.00
68510;BMP180;55512;50.102;19.958;2023-03-02T04:02:19;99294.40;;;-2.02
68510;BMP180;55512;50.102;19.958;2023-03-02T04:04:45;99293.40;;;-2.02
68510;BMP180;55512;50.102;19.958;2023-03-02T04:07:13;99295.00;;;-2.00
68510;BMP180;55512;50.102;19.958;2023-03-02T04:09:39;99293.40;;;-2.02
68510;BMP180;55512;50.102;19.958;2023-03-02T04:12:07;99293.60;;;-2.00
68510;BMP180;55512;50.102;19.958;2023-03-02T04:14:33;99288.00;;;-2.00
68510;BMP180;55512;50.102;19.958;2023-03-02T04:16:58;99297.60;;;-2.00
68510;BMP180;55512;50.102;19.958;2023-03-02T04:19:25;99298.00;;;-2.00
68510;BMP180;55512;50.102;19.958;2023-03-02T04:21:53;99298.00;;;-1.96
68510;BMP180;55512;50.102;19.958;2023-03-02T04:24:21;99293.40;;;-1.90
68510;BMP180;55512;50.102;19.958;2023-03-02T04:26:48;99290.80;;;-1.90
68510;BMP180;55512;50.102;19.958;2023-03-02T04:29:14;99293.60;;;-1.90
68510;BMP180;55512;50.102;19.958;2023-03-02T04:31:40;99289.60;;;-1.84
68510;BMP180;55512;50.102;19.958;2023-03-02T04:34:07;99292.40;;;-1.80
68510;BMP180;55512;50.102;19.958;2023-03-02T04:36:37;99288.20;;;-1.78
68510;BMP180;55512;50.102;19.958;2023-03-02T04:39:05;99282.20;;;-1.80
68510;BMP180;55512;50.102;19.958;2023-03-02T04:41:31;99283.00;;;-1.80
68510;BMP180;55512;50.102;19.958;2023-03-02T04:43:57;99285.60;;;-1.72
68510;BMP180;55512;50.102;19.958;2023-03-02T04:46:25;99282.80;;;-1.74
68510;BMP180;55512;50.102;19.958;2023-03-02T04:48:52;99283.40;;;-1.80
68510;BMP180;55512;50.102;19.958;2023-03-02T04:51:27;99276.60;;;-1.80
68510;BMP180;55512;50.102;19.958;2023-03-02T04:53:55;99278.80;;;-1.86
68510;BMP180;55512;50.102;19.958;2023-03-02T04:56:21;99271.40;;;-1.90
68510;BMP180;55512;50.102;19.958;2023-03-02T04:58:47;99272.40;;;-1.90
68510;BMP180;55512;50.102;19.958;2023-03-02T05:01:15;99280.40;;;-1.90
68510;BMP180;55512;50.102;19.958;2023-03-02T05:03:41;99280.40;;;-1.90
68510;BMP180;55512;50.102;19.958;2023-03-02T05:06:07;99277.40;;;-1.90
68510;BMP180;55512;50.102;19.958;2023-03-02T05:08:33;99282.20;;;-2.00
68510;BMP180;55512;50.102;19.958;2023-03-02T05:10:58;99280.40;;;-2.00
68510;BMP180;55512;50.102;19.958;2023-03-02T05:13:26;99282.80;;;-2.10
68510;BMP180;55512;50.102;19.958;2023-03-02T05:15:52;99284.40;;;-2.10
68510;BMP180;55512;50.102;19.958;2023-03-02T05:18:19;99290.80;;;-2.10
68510;BMP180;55512;50.102;19.958;2023-03-02T05:20:45;99289.60;;;-2.10
68510;BMP180;55512;50.102;19.958;2023-03-02T05:23:14;99287.20;;;-2.14
68510;BMP180;55512;50.102;19.958;2023-03-02T05:25:52;99287.40;;;-2.10
68510;BMP180;55512;50.102;19.958;2023-03-02T05:28:20;99291.80;;;-2.10
68510;BMP180;55512;50.102;19.958;2023-03-02T05:30:47;99290.80;;;-2.10
68510;BMP180;55512;50.102;19.958;2023-03-02T05:33:14;99288.60;;;-2.10
68510;BMP180;55512;50.102;19.958;2023-03-02T05:35:41;99290.00;;;-2.10
68510;BMP180;55512;50.102;19.958;2023-03-02T05:38:07;99287.40;;;-2.02
68510;BMP180;55512;50.102;19.958;2023-03-02T05:40:33;99290.60;;;-2.08
68510;BMP180;55512;50.102;19.958;2023-03-02T05:42:58;99286.80;;;-2.04
68510;BMP180;55512;50.102;19.958;2023-03-02T05:45:29;99295.60;;;-2.00
68510;BMP180;55512;50.102;19.958;2023-03-02T05:47:55;99292.00;;;-1.98
68510;BMP180;55512;50.102;19.958;2023-03-02T05:50:22;99293.40;;;-1.90
68510;BMP180;55512;50.102;19.958;2023-03-02T05:52:48;99297.00;;;-1.90
68510;BMP180;55512;50.102;19.958;2023-03-02T05:55:16;99296.00;;;-1.90
68510;BMP180;55512;50.102;19.958;2023-03-02T05:57:42;99294.20;;;-1.80
68510;BMP180;55512;50.102;19.958;2023-03-02T06:00:10;99300.20;;;-1.80
68510;BMP180;55512;50.102;19.958;2023-03-02T06:02:36;99298.40;;;-1.74
68510;BMP180;55512;50.102;19.958;2023-03-02T06:05:13;99293.00;;;-1.70
68510;BMP180;55512;50.102;19.958;2023-03-02T06:07:39;99295.80;;;-1.68
68510;BMP180;55512;50.102;19.958;2023-03-02T06:10:06;99300.40;;;-1.60
68510;BMP180;55512;50.102;19.958;2023-03-02T06:12:32;99306.00;;;-1.60
68510;BMP180;55512;50.102;19.958;2023-03-02T06:14:58;99311.20;;;-1.60
68510;BMP180;55512;50.102;19.958;2023-03-02T06:17:25;99307.80;;;-1.60
68510;BMP180;55512;50.102;19.958;2023-03-02T06:19:50;99310.40;;;-1.58
68510;BMP180;55512;50.102;19.958;2023-03-02T06:22:16;99309.20;;;-1.50
68510;BMP180;55512;50.102;19.958;2023-03-02T06:24:41;99307.20;;;-1.50
68510;BMP180;55512;50.102;19.958;2023-03-02T06:27:07;99311.20;;;-1.50
68510;BMP180;55512;50.102;19.958;2023-03-02T06:29:32;99304.60;;;-1.42
68510;BMP180;55512;50.102;19.958;2023-03-02T06:31:58;99308.00;;;-1.40
68510;BMP180;55512;50.102;19.958;2023-03-02T06:34:24;99301.60;;;-1.30
68510;BMP180;55512;50.102;19.958;2023-03-02T06:36:49;99305.60;;;-1.30
68510;BMP180;55512;50.102;19.958;2023-03-02T06:39:15;99310.20;;;-1.20
68510;BMP180;55512;50.102;19.958;2023-03-02T06:41:45;99310.40;;;-1.20
68510;BMP180;55512;50.102;19.958;2023-03-02T06:44:13;99314.60;;;-1.10
68510;BMP180;55512;50.102;19.958;2023-03-02T06:46:39;99320.60;;;-1.00
68510;BMP180;55512;50.102;19.958;2023-03-02T06:49:07;99321.80;;;-0.90
68510;BMP180;55512;50.102;19.958;2023-03-02T06:51:34;99318.00;;;-0.82
68510;BMP180;55512;50.102;19.958;2023-03-02T06:53:59;99320.20;;;-0.80
68510;BMP180;55512;50.102;19.958;2023-03-02T06:56:25;99331.60;;;-0.70
68510;BMP180;55512;50.102;19.958;2023-03-02T06:58:51;99332.60;;;-0.70
68510;BMP180;55512;50.102;19.958;2023-03-02T07:01:17;99331.20;;;-0.60
68510;BMP180;55512;50.102;19.958;2023-03-02T07:03:43;99335.60;;;-0.60
68510;BMP180;55512;50.102;19.958;2023-03-02T07:06:11;99339.20;;;-0.60
68510;BMP180;55512;50.102;19.958;2023-03-02T07:08:37;99340.60;;;-0.50
68510;BMP180;55512;50.102;19.958;2023-03-02T07:11:11;99339.00;;;-0.42
68510;BMP180;55512;50.102;19.958;2023-03-02T07:13:40;99344.80;;;-0.40
68510;BMP180;55512;50.102;19.958;2023-03-02T07:16:11;99341.80;;;-0.30
68510;BMP180;55512;50.102;19.958;2023-03-02T07:18:38;99342.60;;;-0.24
68510;BMP180;55512;50.102;19.958;2023-03-02T07:21:04;99346.40;;;-0.20
68510;BMP180;55512;50.102;19.958;2023-03-02T07:23:31;99347.80;;;-0.10
68510;BMP180;55512;50.102;19.958;2023-03-02T07:25:57;99344.00;;;-0.10
68510;BMP180;55512;50.102;19.958;2023-03-02T07:28:23;99346.40;;;0.00
68510;BMP180;55512;50.102;19.958;2023-03-02T07:30:53;99344.40;;;0.02
68510;BMP180;55512;50.102;19.958;2023-03-02T07:33:20;99339.80;;;0.10
68510;BMP180;55512;50.102;19.958;2023-03-02T07:35:45;99337.20;;;0.10
68510;BMP180;55512;50.102;19.958;2023-03-02T07:38:11;99334.00;;;0.20
68510;BMP180;55512;50.102;19.958;2023-03-02T07:40:43;99338.40;;;0.26
68510;BMP180;55512;50.102;19.958;2023-03-02T07:43:09;99336.00;;;0.30
68510;BMP180;55512;50.102;19.958;2023-03-02T07:45:36;99335.80;;;0.40
68510;BMP180;55512;50.102;19.958;2023-03-02T07:48:03;99335.40;;;0.50
68510;BMP180;55512;50.102;19.958;2023-03-02T07:50:30;99334.20;;;0.60
68510;BMP180;55512;50.102;19.958;2023-03-02T07:52:56;99338.60;;;0.70
68510;BMP180;55512;50.102;19.958;2023-03-02T07:55:21;99336.60;;;0.80
68510;BMP180;55512;50.102;19.958;2023-03-02T07:57:47;99336.80;;;0.94
68510;BMP180;55512;50.102;19.958;2023-03-02T08:00:13;99344.20;;;1.00
68510;BMP180;55512;50.102;19.958;2023-03-02T08:02:41;99346.80;;;1.10
68510;BMP180;55512;50.102;19.958;2023-03-02T08:05:08;99346.20;;;1.20
68510;BMP180;55512;50.102;19.958;2023-03-02T08:07:34;99349.00;;;1.30
68510;BMP180;55512;50.102;19.958;2023-03-02T08:09:59;99346.20;;;1.38
68510;BMP180;55512;50.102;19.958;2023-03-02T08:12:26;99350.00;;;1.40
68510;BMP180;55512;50.102;19.958;2023-03-02T08:14:52;99349.60;;;1.50
68510;BMP180;55512;50.102;19.958;2023-03-02T08:17:17;99345.20;;;1.50
68510;BMP180;55512;50.102;19.958;2023-03-02T08:19:43;99344.80;;;1.60
68510;BMP180;55512;50.102;19.958;2023-03-02T08:22:09;99348.40;;;1.64
68510;BMP180;55512;50.102;19.958;2023-03-02T08:24:34;99349.60;;;1.70
68510;BMP180;55512;50.102;19.958;2023-03-02T08:27:02;99345.80;;;1.80
68510;BMP180;55512;50.102;19.958;2023-03-02T08:29:29;99345.00;;;1.80
68510;BMP180;55512;50.102;19.958;2023-03-02T08:31:54;99337.40;;;1.90
68510;BMP180;55512;50.102;19.958;2023-03-02T08:34:20;99342.60;;;2.00
68510;BMP180;55512;50.102;19.958;2023-03-02T08:36:45;99342.40;;;2.00
68510;BMP180;55512;50.102;19.958;2023-03-02T08:39:11;99335.20;;;2.10
68510;BMP180;55512;50.102;19.958;2023-03-02T08:41:37;99335.40;;;2.18
68510;BMP180;55512;50.102;19.958;2023-03-02T08:44:02;99331.00;;;2.20
68510;BMP180;55512;50.102;19.958;2023-03-02T08:46:28;99333.20;;;2.30
68510;BMP180;55512;50.102;19.958;2023-03-02T08:48:53;99331.40;;;2.40
68510;BMP180;55512;50.102;19.958;2023-03-02T08:51:24;99330.00;;;2.40
68510;BMP180;55512;50.102;19.958;2023-03-02T08:53:53;99331.20;;;2.50
68510;BMP180;55512;50.102;19.958;2023-03-02T08:56:22;99329.00;;;2.50
68510;BMP180;55512;50.102;19.958;2023-03-02T08:58:51;99323.20;;;2.60
68510;BMP180;55512;50.102;19.958;2023-03-02T09:01:21;99327.60;;;2.70
68510;BMP180;55512;50.102;19.958;2023-03-02T09:03:47;99323.60;;;2.74
68510;BMP180;55512;50.102;19.958;2023-03-02T09:06:14;99323.80;;;2.80
68510;BMP180;55512;50.102;19.958;2023-03-02T09:08:39;99324.60;;;2.90
68510;BMP180;55512;50.102;19.958;2023-03-02T09:11:06;99321.00;;;2.94
68510;BMP180;55512;50.102;19.958;2023-03-02T09:13:32;99322.00;;;3.00
68510;BMP180;55512;50.102;19.958;2023-03-02T09:15:58;99319.20;;;3.10
68510;BMP180;55512;50.102;19.958;2023-03-02T09:18:25;99322.40;;;3.10
68510;BMP180;55512;50.102;19.958;2023-03-02T09:20:52;99322.60;;;3.20
68510;BMP180;55512;50.102;19.958;2023-03-02T09:23:18;99315.80;;;3.30
68510;BMP180;55512;50.102;19.958;2023-03-02T09:25:45;99313.80;;;3.30
68510;BMP180;55512;50.102;19.958;2023-03-02T09:28:12;99318.60;;;3.40
68510;BMP180;55512;50.102;19.958;2023-03-02T09:30:37;99314.60;;;3.48
68510;BMP180;55512;50.102;19.958;2023-03-02T09:33:03;99319.80;;;3.50
68510;BMP180;55512;50.102;19.958;2023-03-02T09:35:28;99316.80;;;3.60
68510;BMP180;55512;50.102;19.958;2023-03-02T09:37:54;99313.80;;;3.66
68510;BMP180;55512;50.102;19.958;2023-03-02T09:40:23;99307.80;;;3.70
68510;BMP180;55512;50.102;19.958;2023-03-02T09:43:24;99307.60;;;3.80
68510;BMP180;55512;50.102;19.958;2023-03-02T09:54:28;99307.20;;;4.20
68510;BMP180;55512;50.102;19.958;2023-03-02T09:56:57;99307.40;;;4.28
68510;BMP180;55512;50.102;19.958;2023-03-02T09:59:28;99294.20;;;4.30
68510;BMP180;55512;50.102;19.958;2023-03-02T10:02:17;99296.80;;;4.40
68510;BMP180;55512;50.102;19.958;2023-03-02T10:04:52;99301.00;;;4.50
68510;BMP180;55512;50.102;19.958;2023-03-02T10:07:36;99294.80;;;4.58
68510;BMP180;55512;50.102;19.958;2023-03-02T10:10:26;99296.60;;;4.66
68510;BMP180;55512;50.102;19.958;2023-03-02T10:13:30;99290.20;;;4.78
68510;BMP180;55512;50.102;19.958;2023-03-02T10:19:01;99288.20;;;4.90
68510;BMP180;55512;50.102;19.958;2023-03-02T10:21:37;99288.00;;;5.00
68510;BMP180;55512;50.102;19.958;2023-03-02T10:24:28;99286.40;;;5.10
68510;BMP180;55512;50.102;19.958;2023-03-02T10:30:27;99288.20;;;5.20
68510;BMP180;55512;50.102;19.958;2023-03-02T10:33:00;99284.00;;;5.30
68510;BMP180;55512;50.102;19.958;2023-03-02T10:35:28;99284.20;;;5.40
68510;BMP180;55512;50.102;19.958;2023-03-02T10:38:21;99281.20;;;5.50
68510;BMP180;55512;50.102;19.958;2023-03-02T10:40:50;99274.00;;;5.50
68510;BMP180;55512;50.102;19.958;2023-03-02T10:43:34;99273.20;;;5.60
68510;BMP180;55512;50.102;19.958;2023-03-02T10:46:05;99272.60;;;5.70
68510;BMP180;55512;50.102;19.958;2023-03-02T10:48:57;99266.20;;;5.72
68510;BMP180;55512;50.102;19.958;2023-03-02T10:51:30;99267.80;;;5.80
68510;BMP180;55512;50.102;19.958;2023-03-02T10:54:11;99258.40;;;5.90
68510;BMP180;55512;50.102;19.958;2023-03-02T10:56:40;99256.00;;;6.00
68510;BMP180;55512;50.102;19.958;2023-03-02T11:02:25;99251.40;;;6.10
68510;BMP180;55512;50.102;19.958;2023-03-02T11:04:57;99243.40;;;6.20
68510;BMP180;55512;50.102;19.958;2023-03-02T11:07:27;99244.60;;;6.22
68510;BMP180;55512;50.102;19.958;2023-03-02T11:10:18;99246.20;;;6.30
68510;BMP180;55512;50.102;19.958;2023-03-02T11:12:48;99240.60;;;6.30
68510;BMP180;55512;50.102;19.958;2023-03-02T11:15:34;99243.40;;;6.40
68510;BMP180;55512;50.102;19.958;2023-03-02T11:18:04;99237.60;;;6.40
68510;BMP180;55512;50.102;19.958;2023-03-02T11:20:36;99237.20;;;6.50
68510;BMP180;55512;50.102;19.958;2023-03-02T11:23:35;99224.40;;;6.50
68510;BMP180;55512;50.102;19.958;2023-03-02T11:26:14;99222.20;;;6.50
68510;BMP180;55512;50.102;19.958;2023-03-02T11:28:50;99220.20;;;6.60
68510;BMP180;55512;50.102;19.958;2023-03-02T11:31:31;99211.80;;;6.60
68510;BMP180;55512;50.102;19.958;2023-03-02T11:42:28;99200.60;;;6.80
68510;BMP180;55512;50.102;19.958;2023-03-02T11:44:55;99193.80;;;6.90
68510;BMP180;55512;50.102;19.958;2023-03-02T11:47:24;99197.20;;;6.94
68510;BMP180;55512;50.102;19.958;2023-03-02T11:49:57;99196.20;;;7.00
68510;BMP180;55512;50.102;19.958;2023-03-02T11:52:31;99190.80;;;7.10
68510;BMP180;55512;50.102;19.958;2023-03-02T11:55:05;99194.20;;;7.12
68510;BMP180;55512;50.102;19.958;2023-03-02T11:57:44;99189.80;;;7.20
68510;BMP180;55512;50.102;19.958;2023-03-02T12:00:29;99190.80;;;7.30
68510;BMP180;55512;50.102;19.958;2023-03-02T12:05:46;99185.00;;;7.44
68510;BMP180;55512;50.102;19.958;2023-03-02T12:10:43;99180.00;;;7.60
68510;BMP180;55512;50.102;19.958;2023-03-02T12:13:27;99180.00;;;7.70
68510;BMP180;55512;50.102;19.958;2023-03-02T12:15:53;99176.00;;;7.80
68510;BMP180;55512;50.102;19.958;2023-03-02T12:21:08;99178.80;;;7.90
68510;BMP180;55512;50.102;19.958;2023-03-02T12:23:59;99169.80;;;8.00
68510;BMP180;55512;50.102;19.958;2023-03-02T12:26:36;99168.20;;;8.08
68510;BMP180;55512;50.102;19.958;2023-03-02T12:29:22;99170.00;;;8.10
68510;BMP180;55512;50.102;19.958;2023-03-02T12:31:52;99169.80;;;8.10
68510;BMP180;55512;50.102;19.958;2023-03-02T12:34:43;99163.80;;;8.20
68510;BMP180;55512;50.102;19.958;2023-03-02T12:37:23;99164.00;;;8.32
68510;BMP180;55512;50.102;19.958;2023-03-02T12:46:25;99150.20;;;8.62
68510;BMP180;55512;50.102;19.958;2023-03-02T12:49:48;99151.60;;;8.80
68510;BMP180;55512;50.102;19.958;2023-03-02T12:52:35;99147.20;;;8.90
68510;BMP180;55512;50.102;19.958;2023-03-02T12:57:51;99143.80;;;9.12
68510;BMP180;55512;50.102;19.958;2023-03-02T13:00:24;99139.60;;;9.30
68510;BMP180;55512;50.102;19.958;2023-03-02T13:02:53;99140.00;;;9.40
68510;BMP180;55512;50.102;19.958;2023-03-02T13:05:32;99137.60;;;9.48
68510;BMP180;55512;50.102;19.958;2023-03-02T13:08:05;99134.20;;;9.52
68510;BMP180;55512;50.102;19.958;2023-03-02T13:10:38;99134.20;;;9.68
68510;BMP180;55512;50.102;19.958;2023-03-02T13:13:43;99129.40;;;9.80
68510;BMP180;55512;50.102;19.958;2023-03-02T13:16:29;99129.80;;;9.98
68510;BMP180;55512;50.102;19.958;2023-03-02T13:19:02;99124.20;;;10.10
68510;BMP180;55512;50.102;19.958;2023-03-02T13:21:35;99121.00;;;10.26
68510;BMP180;55512;50.102;19.958;2023-03-02T13:24:19;99121.80;;;10.40
68510;BMP180;55512;50.102;19.958;2023-03-02T13:26:55;99119.60;;;10.50
68510;BMP180;55512;50.102;19.958;2023-03-02T13:29:26;99118.60;;;10.60
68510;BMP180;55512;50.102;19.958;2023-03-02T13:31:53;99117.40;;;10.70
68510;BMP180;55512;50.102;19.958;2023-03-02T13:34:27;99115.60;;;10.82
68510;BMP180;55512;50.102;19.958;2023-03-02T13:36:53;99112.00;;;10.90
68510;BMP180;55512;50.102;19.958;2023-03-02T13:39:30;99109.00;;;11.00
68510;BMP180;55512;50.102;19.958;2023-03-02T13:42:01;99107.60;;;11.10
68510;BMP180;55512;50.102;19.958;2023-03-02T13:44:33;99106.40;;;11.20
68510;BMP180;55512;50.102;19.958;2023-03-02T13:47:00;99105.20;;;11.20
68510;BMP180;55512;50.102;19.958;2023-03-02T13:49:32;99096.40;;;11.20
68510;BMP180;55512;50.102;19.958;2023-03-02T13:52:24;99096.00;;;11.40
68510;BMP180;55512;50.102;19.958;2023-03-02T13:54:52;99091.20;;;11.56
68510;BMP180;55512;50.102;19.958;2023-03-02T13:57:25;99091.40;;;11.70
68510;BMP180;55512;50.102;19.958;2023-03-02T13:59:52;99085.00;;;11.90
68510;BMP180;55512;50.102;19.958;2023-03-02T14:02:24;99085.40;;;12.00
68510;BMP180;55512;50.102;19.958;2023-03-02T14:04:50;99081.20;;;12.10
68510;BMP180;55512;50.102;19.958;2023-03-02T14:07:16;99077.40;;;12.20
68510;BMP180;55512;50.102;19.958;2023-03-02T14:09:43;99075.40;;;12.40
68510;BMP180;55512;50.102;19.958;2023-03-02T14:12:26;99077.40;;;12.60
68510;BMP180;55512;50.102;19.958;2023-03-02T14:14:57;99067.40;;;12.70
68510;BMP180;55512;50.102;19.958;2023-03-02T14:17:25;99073.60;;;12.86
68510;BMP180;55512;50.102;19.958;2023-03-02T14:19:52;99070.40;;;14.10
68510;BMP180;55512;50.102;19.958;2023-03-02T14:22:20;99075.40;;;16.90
68510;BMP180;55512;50.102;19.958;2023-03-02T14:24:47;99081.80;;;20.00
68510;BMP180;55512;50.102;19.958;2023-03-02T14:27:15;99091.00;;;22.58
68510;BMP180;55512;50.102;19.958;2023-03-02T14:29:43;99100.40;;;24.80
68510;BMP180;55512;50.102;19.958;2023-03-02T14:32:12;99103.40;;;26.68
68510;BMP180;55512;50.102;19.958;2023-03-02T14:34:39;99102.00;;;28.28
68510;BMP180;55512;50.102;19.958;2023-03-02T14:37:13;99107.40;;;29.72
68510;BMP180;55512;50.102;19.958;2023-03-02T14:39:42;99109.60;;;31.10
68510;BMP180;55512;50.102;19.958;2023-03-02T14:42:15;99114.80;;;32.32
68510;BMP180;55512;50.102;19.958;2023-03-02T14:44:42;99120.00;;;33.44
68510;BMP180;55512;50.102;19.958;2023-03-02T14:47:08;99118.80;;;34.24
68510;BMP180;55512;50.102;19.958;2023-03-02T14:49:36;99115.60;;;34.88
68510;BMP180;55512;50.102;19.958;2023-03-02T14:52:32;99118.80;;;35.38
68510;BMP180;55512;50.102;19.958;2023-03-02T14:55:04;99120.60;;;35.76
68510;BMP180;55512;50.102;19.958;2023-03-02T14:57:35;99123.20;;;36.02
68510;BMP180;55512;50.102;19.958;2023-03-02T15:00:01;99122.00;;;36.36
68510;BMP180;55512;50.102;19.958;2023-03-02T15:02:27;99119.80;;;36.50
68510;BMP180;55512;50.102;19.958;2023-03-02T15:04:54;99116.60;;;36.50
68510;BMP180;55512;50.102;19.958;2023-03-02T15:07:21;99118.40;;;36.50
68510;BMP180;55512;50.102;19.958;2023-03-02T15:09:47;99118.60;;;36.50
68510;BMP180;55512;50.102;19.958;2023-03-02T15:12:13;99114.80;;;36.40